ESOE/ORB METAR and TAF weather

Enter ICAO airport designator
Station Type Date Time Source
ESOE METAR 2021/09/27 07:20 UTC NOAA

ESOE 270720Z AUTO 09007KT 060V120 9999 OVC005/// 12/11 Q1023


Station Type Date Time Source
ESOE Decoded METAR 2021/09/27 07:20 UTC NOAA

Orebro Private , Sweden (ESOE) 59-14N 015-03E
Sep 27, 2021 - 03:20 AM EDT / 2021.09.27 0720 UTC
Wind: from the E (090 degrees) at 8 MPH (7 KT) (direction variable):0
Visibility: greater than 7 mile(s):0
Sky conditions: overcast
Temperature: 53 F (12 C)
Dew Point: 51 F (11 C)
Relative Humidity: 93%
Pressure (altimeter): 30.21 in. Hg (1023 hPa)
ob: ESOE 270720Z AUTO 09007KT 060V120 9999 OVC005/// 12/11 Q1023
cycle: 7

Station Type Date Time Source
ESOE TAF 2016/03/16 04:36 UTC NOAA

TAF TAF ESOE 160330Z 1604/1624 23005KT 9000 BR NSC PROB40 1604/1607 1200 BR

Example: see airport list